sensor_id;sensor_type;location;lat;lon;timestamp;P1;durP1;ratioP1;P2;durP2;ratioP2
9950;SDS011;24074;49.254;6.702;2022-12-18T00:02:10;17.77;;;10.90;;
9950;SDS011;24074;49.254;6.702;2022-12-18T00:04:36;17.67;;;10.77;;
9950;SDS011;24074;49.254;6.702;2022-12-18T00:07:01;20.17;;;11.60;;
9950;SDS011;24074;49.254;6.702;2022-12-18T00:09:28;21.57;;;12.37;;
9950;SDS011;24074;49.254;6.702;2022-12-18T00:11:54;17.83;;;12.03;;
9950;SDS011;24074;49.254;6.702;2022-12-18T00:14:20;18.67;;;11.20;;
9950;SDS011;24074;49.254;6.702;2022-12-18T00:16:45;13.63;;;9.27;;
9950;SDS011;24074;49.254;6.702;2022-12-18T00:19:12;17.47;;;11.17;;
9950;SDS011;24074;49.254;6.702;2022-12-18T00:21:39;19.67;;;10.57;;
9950;SDS011;24074;49.254;6.702;2022-12-18T00:24:05;17.43;;;10.50;;
9950;SDS011;24074;49.254;6.702;2022-12-18T00:26:31;16.07;;;10.60;;
9950;SDS011;24074;49.254;6.702;2022-12-18T00:28:59;17.20;;;11.30;;
9950;SDS011;24074;49.254;6.702;2022-12-18T00:31:26;16.60;;;10.57;;
9950;SDS011;24074;49.254;6.702;2022-12-18T00:33:53;17.37;;;11.83;;
9950;SDS011;24074;49.254;6.702;2022-12-18T00:36:21;19.13;;;12.27;;
9950;SDS011;24074;49.254;6.702;2022-12-18T00:38:49;17.83;;;10.73;;
9950;SDS011;24074;49.254;6.702;2022-12-18T00:41:15;15.33;;;10.83;;
9950;SDS011;24074;49.254;6.702;2022-12-18T00:44:00;17.33;;;10.60;;
9950;SDS011;24074;49.254;6.702;2022-12-18T00:46:26;18.20;;;10.60;;
9950;SDS011;24074;49.254;6.702;2022-12-18T00:48:52;16.03;;;10.27;;
9950;SDS011;24074;49.254;6.702;2022-12-18T00:51:17;20.20;;;12.17;;
9950;SDS011;24074;49.254;6.702;2022-12-18T00:53:43;21.70;;;12.40;;
9950;SDS011;24074;49.254;6.702;2022-12-18T00:56:09;20.47;;;12.33;;
9950;SDS011;24074;49.254;6.702;2022-12-18T00:58:34;17.53;;;11.50;;
9950;SDS011;24074;49.254;6.702;2022-12-18T01:01:00;20.23;;;12.10;;
9950;SDS011;24074;49.254;6.702;2022-12-18T01:03:25;22.40;;;12.67;;
9950;SDS011;24074;49.254;6.702;2022-12-18T01:05:51;17.57;;;12.03;;
9950;SDS011;24074;49.254;6.702;2022-12-18T01:08:16;20.80;;;12.23;;
9950;SDS011;24074;49.254;6.702;2022-12-18T01:10:42;19.30;;;12.30;;
9950;SDS011;24074;49.254;6.702;2022-12-18T01:13:08;23.27;;;13.57;;
9950;SDS011;24074;49.254;6.702;2022-12-18T01:15:34;19.77;;;12.67;;
9950;SDS011;24074;49.254;6.702;2022-12-18T01:17:59;19.27;;;12.53;;
9950;SDS011;24074;49.254;6.702;2022-12-18T01:20:25;19.77;;;12.40;;
9950;SDS011;24074;49.254;6.702;2022-12-18T01:22:50;20.60;;;12.07;;
9950;SDS011;24074;49.254;6.702;2022-12-18T01:25:16;21.23;;;12.13;;
9950;SDS011;24074;49.254;6.702;2022-12-18T01:27:41;21.13;;;12.93;;
9950;SDS011;24074;49.254;6.702;2022-12-18T01:30:08;19.87;;;12.80;;
9950;SDS011;24074;49.254;6.702;2022-12-18T01:32:34;20.67;;;13.20;;
9950;SDS011;24074;49.254;6.702;2022-12-18T01:34:59;20.70;;;13.17;;
9950;SDS011;24074;49.254;6.702;2022-12-18T01:37:25;20.33;;;12.27;;
9950;SDS011;24074;49.254;6.702;2022-12-18T01:39:52;21.73;;;12.77;;
9950;SDS011;24074;49.254;6.702;2022-12-18T01:42:19;22.27;;;13.27;;
9950;SDS011;24074;49.254;6.702;2022-12-18T01:47:36;24.97;;;14.47;;
9950;SDS011;24074;49.254;6.702;2022-12-18T01:50:40;20.93;;;12.63;;
9950;SDS011;24074;49.254;6.702;2022-12-18T01:53:10;21.33;;;12.50;;
9950;SDS011;24074;49.254;6.702;2022-12-18T01:55:47;25.47;;;13.50;;
9950;SDS011;24074;49.254;6.702;2022-12-18T01:58:16;22.43;;;13.57;;
9950;SDS011;24074;49.254;6.702;2022-12-18T02:00:43;23.67;;;12.57;;
9950;SDS011;24074;49.254;6.702;2022-12-18T02:03:08;24.23;;;14.57;;
9950;SDS011;24074;49.254;6.702;2022-12-18T02:08:32;24.83;;;14.13;;
9950;SDS011;24074;49.254;6.702;2022-12-18T02:19:01;25.03;;;15.57;;
9950;SDS011;24074;49.254;6.702;2022-12-18T02:21:52;24.20;;;14.93;;
9950;SDS011;24074;49.254;6.702;2022-12-18T02:24:37;25.00;;;14.77;;
9950;SDS011;24074;49.254;6.702;2022-12-18T02:27:10;21.50;;;13.70;;
9950;SDS011;24074;49.254;6.702;2022-12-18T02:32:05;26.33;;;15.63;;
9950;SDS011;24074;49.254;6.702;2022-12-18T02:34:37;21.17;;;14.17;;
9950;SDS011;24074;49.254;6.702;2022-12-18T02:37:04;23.17;;;14.57;;
9950;SDS011;24074;49.254;6.702;2022-12-18T02:39:34;21.67;;;13.83;;
9950;SDS011;24074;49.254;6.702;2022-12-18T02:42:02;24.00;;;15.80;;
9950;SDS011;24074;49.254;6.702;2022-12-18T02:44:32;23.13;;;13.97;;
9950;SDS011;24074;49.254;6.702;2022-12-18T02:47:00;24.03;;;13.43;;
9950;SDS011;24074;49.254;6.702;2022-12-18T02:49:29;24.13;;;14.67;;
9950;SDS011;24074;49.254;6.702;2022-12-18T03:01:09;27.63;;;16.57;;
9950;SDS011;24074;49.254;6.702;2022-12-18T03:03:56;23.20;;;15.57;;
9950;SDS011;24074;49.254;6.702;2022-12-18T03:08:56;25.67;;;16.07;;
9950;SDS011;24074;49.254;6.702;2022-12-18T03:11:26;26.13;;;16.27;;
9950;SDS011;24074;49.254;6.702;2022-12-18T03:14:13;23.67;;;15.30;;
9950;SDS011;24074;49.254;6.702;2022-12-18T03:16:41;24.63;;;14.47;;
9950;SDS011;24074;49.254;6.702;2022-12-18T03:19:09;25.60;;;16.90;;
9950;SDS011;24074;49.254;6.702;2022-12-18T03:21:43;27.33;;;16.87;;
9950;SDS011;24074;49.254;6.702;2022-12-18T03:24:12;24.70;;;16.47;;
9950;SDS011;24074;49.254;6.702;2022-12-18T03:26:40;23.30;;;15.50;;
9950;SDS011;24074;49.254;6.702;2022-12-18T03:29:11;26.33;;;16.37;;
9950;SDS011;24074;49.254;6.702;2022-12-18T03:31:42;25.77;;;16.33;;
9950;SDS011;24074;49.254;6.702;2022-12-18T03:34:15;27.80;;;17.30;;
9950;SDS011;24074;49.254;6.702;2022-12-18T03:36:46;26.40;;;17.20;;
9950;SDS011;24074;49.254;6.702;2022-12-18T03:39:12;26.60;;;16.90;;
9950;SDS011;24074;49.254;6.702;2022-12-18T03:41:42;24.83;;;15.20;;
9950;SDS011;24074;49.254;6.702;2022-12-18T03:44:13;24.67;;;16.50;;
9950;SDS011;24074;49.254;6.702;2022-12-18T03:47:05;24.07;;;15.40;;
9950;SDS011;24074;49.254;6.702;2022-12-18T03:49:39;24.73;;;16.67;;
9950;SDS011;24074;49.254;6.702;2022-12-18T03:52:24;25.97;;;15.70;;
9950;SDS011;24074;49.254;6.702;2022-12-18T03:54:55;26.17;;;17.17;;
9950;SDS011;24074;49.254;6.702;2022-12-18T03:57:24;27.53;;;16.83;;
9950;SDS011;24074;49.254;6.702;2022-12-18T03:59:57;25.27;;;16.87;;
9950;SDS011;24074;49.254;6.702;2022-12-18T04:02:26;26.37;;;15.83;;
9950;SDS011;24074;49.254;6.702;2022-12-18T04:04:53;25.63;;;16.33;;
9950;SDS011;24074;49.254;6.702;2022-12-18T04:07:23;28.13;;;17.40;;
9950;SDS011;24074;49.254;6.702;2022-12-18T04:09:50;27.70;;;17.30;;
9950;SDS011;24074;49.254;6.702;2022-12-18T04:12:19;25.30;;;15.70;;
9950;SDS011;24074;49.254;6.702;2022-12-18T04:14:45;23.37;;;15.07;;
9950;SDS011;24074;49.254;6.702;2022-12-18T04:17:10;25.80;;;16.50;;
9950;SDS011;24074;49.254;6.702;2022-12-18T04:19:36;25.73;;;17.33;;
9950;SDS011;24074;49.254;6.702;2022-12-18T04:22:01;25.47;;;15.83;;
9950;SDS011;24074;49.254;6.702;2022-12-18T04:24:27;22.90;;;14.83;;
9950;SDS011;24074;49.254;6.702;2022-12-18T04:26:53;24.90;;;15.87;;
9950;SDS011;24074;49.254;6.702;2022-12-18T04:29:18;23.97;;;14.73;;
9950;SDS011;24074;49.254;6.702;2022-12-18T04:31:44;24.37;;;15.50;;
9950;SDS011;24074;49.254;6.702;2022-12-18T04:34:09;25.57;;;15.47;;
9950;SDS011;24074;49.254;6.702;2022-12-18T04:36:35;21.90;;;15.27;;
9950;SDS011;24074;49.254;6.702;2022-12-18T04:39:00;23.23;;;15.13;;
9950;SDS011;24074;49.254;6.702;2022-12-18T04:41:26;21.90;;;14.50;;
9950;SDS011;24074;49.254;6.702;2022-12-18T04:43:52;25.23;;;15.27;;
9950;SDS011;24074;49.254;6.702;2022-12-18T04:46:17;23.67;;;15.30;;
9950;SDS011;24074;49.254;6.702;2022-12-18T04:48:44;24.27;;;14.60;;
9950;SDS011;24074;49.254;6.702;2022-12-18T04:51:11;26.60;;;15.33;;
9950;SDS011;24074;49.254;6.702;2022-12-18T04:53:37;25.07;;;15.10;;
9950;SDS011;24074;49.254;6.702;2022-12-18T04:56:07;21.17;;;14.70;;
9950;SDS011;24074;49.254;6.702;2022-12-18T04:58:35;22.57;;;14.33;;
9950;SDS011;24074;49.254;6.702;2022-12-18T05:01:01;25.13;;;14.67;;
9950;SDS011;24074;49.254;6.702;2022-12-18T05:03:27;23.93;;;14.30;;
9950;SDS011;24074;49.254;6.702;2022-12-18T05:05:53;23.03;;;15.37;;
9950;SDS011;24074;49.254;6.702;2022-12-18T05:08:18;25.27;;;16.40;;
9950;SDS011;24074;49.254;6.702;2022-12-18T05:10:44;25.63;;;14.87;;
9950;SDS011;24074;49.254;6.702;2022-12-18T05:13:09;24.07;;;14.77;;
9950;SDS011;24074;49.254;6.702;2022-12-18T05:15:35;22.07;;;13.27;;
9950;SDS011;24074;49.254;6.702;2022-12-18T05:18:01;21.63;;;15.17;;
9950;SDS011;24074;49.254;6.702;2022-12-18T05:20:28;24.23;;;14.80;;
9950;SDS011;24074;49.254;6.702;2022-12-18T05:22:54;22.50;;;14.80;;
9950;SDS011;24074;49.254;6.702;2022-12-18T05:25:20;24.00;;;14.23;;
9950;SDS011;24074;49.254;6.702;2022-12-18T05:27:46;22.77;;;14.57;;
9950;SDS011;24074;49.254;6.702;2022-12-18T05:30:13;24.80;;;14.97;;
9950;SDS011;24074;49.254;6.702;2022-12-18T05:32:39;23.93;;;15.30;;
9950;SDS011;24074;49.254;6.702;2022-12-18T05:35:06;24.10;;;13.90;;
9950;SDS011;24074;49.254;6.702;2022-12-18T05:37:33;23.33;;;13.87;;
9950;SDS011;24074;49.254;6.702;2022-12-18T05:39:59;24.50;;;14.80;;
9950;SDS011;24074;49.254;6.702;2022-12-18T05:42:25;23.73;;;13.93;;
9950;SDS011;24074;49.254;6.702;2022-12-18T05:44:50;23.07;;;14.37;;
9950;SDS011;24074;49.254;6.702;2022-12-18T05:47:16;24.77;;;13.87;;
9950;SDS011;24074;49.254;6.702;2022-12-18T05:49:42;24.90;;;15.10;;
9950;SDS011;24074;49.254;6.702;2022-12-18T05:52:07;22.80;;;14.40;;
9950;SDS011;24074;49.254;6.702;2022-12-18T05:54:33;23.63;;;14.83;;
9950;SDS011;24074;49.254;6.702;2022-12-18T05:56:59;25.90;;;14.73;;
9950;SDS011;24074;49.254;6.702;2022-12-18T05:59:25;25.33;;;15.40;;
9950;SDS011;24074;49.254;6.702;2022-12-18T06:01:50;23.67;;;14.63;;
9950;SDS011;24074;49.254;6.702;2022-12-18T06:04:16;25.60;;;14.73;;
9950;SDS011;24074;49.254;6.702;2022-12-18T06:06:42;23.80;;;15.27;;
9950;SDS011;24074;49.254;6.702;2022-12-18T06:09:07;24.30;;;15.43;;
9950;SDS011;24074;49.254;6.702;2022-12-18T06:11:35;24.00;;;15.40;;
9950;SDS011;24074;49.254;6.702;2022-12-18T06:14:02;26.97;;;15.50;;
9950;SDS011;24074;49.254;6.702;2022-12-18T06:16:28;25.00;;;14.63;;
9950;SDS011;24074;49.254;6.702;2022-12-18T06:18:58;27.47;;;16.30;;
9950;SDS011;24074;49.254;6.702;2022-12-18T06:21:25;25.80;;;15.80;;
9950;SDS011;24074;49.254;6.702;2022-12-18T06:23:51;26.80;;;16.07;;
9950;SDS011;24074;49.254;6.702;2022-12-18T06:26:17;25.13;;;16.23;;
9950;SDS011;24074;49.254;6.702;2022-12-18T06:28:43;25.10;;;15.60;;
9950;SDS011;24074;49.254;6.702;2022-12-18T06:31:09;27.13;;;16.10;;
9950;SDS011;24074;49.254;6.702;2022-12-18T06:33:35;25.60;;;15.30;;
9950;SDS011;24074;49.254;6.702;2022-12-18T06:36:02;27.27;;;15.93;;
9950;SDS011;24074;49.254;6.702;2022-12-18T06:38:32;26.70;;;16.67;;
9950;SDS011;24074;49.254;6.702;2022-12-18T06:40:58;25.47;;;16.60;;
9950;SDS011;24074;49.254;6.702;2022-12-18T06:43:23;24.97;;;15.97;;
9950;SDS011;24074;49.254;6.702;2022-12-18T06:45:49;25.47;;;15.20;;
9950;SDS011;24074;49.254;6.702;2022-12-18T06:48:18;25.20;;;15.17;;
9950;SDS011;24074;49.254;6.702;2022-12-18T06:50:44;24.23;;;15.30;;
9950;SDS011;24074;49.254;6.702;2022-12-18T06:53:10;24.17;;;15.50;;
9950;SDS011;24074;49.254;6.702;2022-12-18T06:55:36;24.43;;;15.23;;
9950;SDS011;24074;49.254;6.702;2022-12-18T06:58:01;23.47;;;15.60;;
9950;SDS011;24074;49.254;6.702;2022-12-18T07:00:27;25.67;;;15.93;;
9950;SDS011;24074;49.254;6.702;2022-12-18T07:02:52;33.07;;;20.57;;
9950;SDS011;24074;49.254;6.702;2022-12-18T07:05:18;29.33;;;19.27;;
9950;SDS011;24074;49.254;6.702;2022-12-18T07:07:43;27.93;;;17.77;;
9950;SDS011;24074;49.254;6.702;2022-12-18T07:10:09;26.87;;;16.07;;
9950;SDS011;24074;49.254;6.702;2022-12-18T07:12:35;26.83;;;16.67;;
9950;SDS011;24074;49.254;6.702;2022-12-18T07:15:00;26.33;;;16.90;;
9950;SDS011;24074;49.254;6.702;2022-12-18T07:17:26;29.50;;;16.47;;
9950;SDS011;24074;49.254;6.702;2022-12-18T07:19:52;25.77;;;15.80;;
9950;SDS011;24074;49.254;6.702;2022-12-18T07:22:17;25.53;;;16.27;;
9950;SDS011;24074;49.254;6.702;2022-12-18T07:24:43;27.57;;;16.30;;
9950;SDS011;24074;49.254;6.702;2022-12-18T07:27:09;27.50;;;17.17;;
9950;SDS011;24074;49.254;6.702;2022-12-18T07:29:34;27.67;;;16.70;;
9950;SDS011;24074;49.254;6.702;2022-12-18T07:32:00;26.80;;;17.10;;
9950;SDS011;24074;49.254;6.702;2022-12-18T07:34:25;27.00;;;15.20;;
9950;SDS011;24074;49.254;6.702;2022-12-18T07:36:51;25.27;;;16.33;;
9950;SDS011;24074;49.254;6.702;2022-12-18T07:39:16;24.73;;;15.77;;
9950;SDS011;24074;49.254;6.702;2022-12-18T07:41:42;22.83;;;14.63;;
9950;SDS011;24074;49.254;6.702;2022-12-18T07:44:10;24.03;;;16.07;;
9950;SDS011;24074;49.254;6.702;2022-12-18T07:46:36;22.40;;;15.03;;
9950;SDS011;24074;49.254;6.702;2022-12-18T07:49:02;23.13;;;15.10;;
9950;SDS011;24074;49.254;6.702;2022-12-18T07:51:28;25.23;;;15.43;;
9950;SDS011;24074;49.254;6.702;2022-12-18T07:53:53;23.57;;;15.00;;
9950;SDS011;24074;49.254;6.702;2022-12-18T07:56:19;23.20;;;15.07;;
9950;SDS011;24074;49.254;6.702;2022-12-18T07:58:45;24.30;;;15.10;;
9950;SDS011;24074;49.254;6.702;2022-12-18T08:01:11;23.40;;;15.40;;
9950;SDS011;24074;49.254;6.702;2022-12-18T08:03:37;26.47;;;15.27;;
9950;SDS011;24074;49.254;6.702;2022-12-18T08:06:05;25.07;;;15.63;;
9950;SDS011;24074;49.254;6.702;2022-12-18T08:08:32;25.23;;;16.10;;
9950;SDS011;24074;49.254;6.702;2022-12-18T08:10:58;22.50;;;15.63;;
9950;SDS011;24074;49.254;6.702;2022-12-18T08:13:24;26.53;;;16.83;;
9950;SDS011;24074;49.254;6.702;2022-12-18T08:15:57;24.57;;;16.00;;
9950;SDS011;24074;49.254;6.702;2022-12-18T08:18:24;23.17;;;15.20;;
9950;SDS011;24074;49.254;6.702;2022-12-18T08:20:50;25.57;;;15.97;;
9950;SDS011;24074;49.254;6.702;2022-12-18T08:23:15;25.60;;;16.30;;
9950;SDS011;24074;49.254;6.702;2022-12-18T08:25:41;26.50;;;16.63;;
9950;SDS011;24074;49.254;6.702;2022-12-18T08:28:07;25.73;;;16.77;;
9950;SDS011;24074;49.254;6.702;2022-12-18T08:30:32;24.83;;;16.10;;
9950;SDS011;24074;49.254;6.702;2022-12-18T08:32:58;25.00;;;16.53;;
9950;SDS011;24074;49.254;6.702;2022-12-18T08:35:23;29.87;;;18.20;;
9950;SDS011;24074;49.254;6.702;2022-12-18T08:37:49;30.53;;;18.50;;
9950;SDS011;24074;49.254;6.702;2022-12-18T08:40:15;29.50;;;17.33;;
9950;SDS011;24074;49.254;6.702;2022-12-18T08:42:40;28.73;;;18.23;;
9950;SDS011;24074;49.254;6.702;2022-12-18T08:45:24;27.07;;;18.63;;
9950;SDS011;24074;49.254;6.702;2022-12-18T08:47:51;33.90;;;20.87;;
9950;SDS011;24074;49.254;6.702;2022-12-18T08:50:16;31.07;;;19.77;;
9950;SDS011;24074;49.254;6.702;2022-12-18T08:52:42;31.67;;;18.60;;
9950;SDS011;24074;49.254;6.702;2022-12-18T08:55:08;30.97;;;19.50;;
9950;SDS011;24074;49.254;6.702;2022-12-18T08:57:34;31.70;;;19.53;;
9950;SDS011;24074;49.254;6.702;2022-12-18T09:00:00;29.70;;;18.53;;
9950;SDS011;24074;49.254;6.702;2022-12-18T09:02:25;33.00;;;21.27;;
9950;SDS011;24074;49.254;6.702;2022-12-18T09:04:51;32.40;;;20.07;;
9950;SDS011;24074;49.254;6.702;2022-12-18T09:07:16;34.53;;;19.47;;
9950;SDS011;24074;49.254;6.702;2022-12-18T09:09:42;31.23;;;20.17;;
9950;SDS011;24074;49.254;6.702;2022-12-18T09:12:07;32.63;;;20.43;;
9950;SDS011;24074;49.254;6.702;2022-12-18T09:14:33;30.23;;;20.27;;
9950;SDS011;24074;49.254;6.702;2022-12-18T09:16:59;31.57;;;19.93;;
9950;SDS011;24074;49.254;6.702;2022-12-18T09:19:24;32.77;;;19.40;;
9950;SDS011;24074;49.254;6.702;2022-12-18T09:21:50;33.23;;;21.33;;
9950;SDS011;24074;49.254;6.702;2022-12-18T09:24:16;35.33;;;20.90;;
9950;SDS011;24074;49.254;6.702;2022-12-18T09:26:42;33.13;;;20.17;;
9950;SDS011;24074;49.254;6.702;2022-12-18T09:29:07;34.33;;;20.83;;
9950;SDS011;24074;49.254;6.702;2022-12-18T09:31:34;33.90;;;20.73;;
9950;SDS011;24074;49.254;6.702;2022-12-18T09:34:00;36.37;;;21.97;;
9950;SDS011;24074;49.254;6.702;2022-12-18T09:36:25;37.40;;;21.73;;
9950;SDS011;24074;49.254;6.702;2022-12-18T09:38:51;35.70;;;21.77;;
9950;SDS011;24074;49.254;6.702;2022-12-18T09:44:09;33.57;;;21.20;;
9950;SDS011;24074;49.254;6.702;2022-12-18T09:46:38;33.30;;;20.47;;
9950;SDS011;24074;49.254;6.702;2022-12-18T09:49:11;34.53;;;19.70;;
9950;SDS011;24074;49.254;6.702;2022-12-18T09:51:44;36.07;;;21.53;;
9950;SDS011;24074;49.254;6.702;2022-12-18T09:54:14;33.20;;;20.53;;
9950;SDS011;24074;49.254;6.702;2022-12-18T09:57:01;37.50;;;21.87;;
9950;SDS011;24074;49.254;6.702;2022-12-18T09:59:30;40.77;;;22.50;;
9950;SDS011;24074;49.254;6.702;2022-12-18T10:02:20;39.70;;;21.10;;
9950;SDS011;24074;49.254;6.702;2022-12-18T10:05:06;37.07;;;21.67;;
9950;SDS011;24074;49.254;6.702;2022-12-18T10:13:23;39.03;;;22.90;;
9950;SDS011;24074;49.254;6.702;2022-12-18T10:16:08;34.80;;;20.00;;
9950;SDS011;24074;49.254;6.702;2022-12-18T10:21:35;30.27;;;17.93;;
9950;SDS011;24074;49.254;6.702;2022-12-18T10:24:21;39.23;;;23.37;;
9950;SDS011;24074;49.254;6.702;2022-12-18T10:26:48;33.73;;;18.53;;
9950;SDS011;24074;49.254;6.702;2022-12-18T10:29:15;33.50;;;19.03;;
9950;SDS011;24074;49.254;6.702;2022-12-18T10:31:41;36.50;;;20.40;;
9950;SDS011;24074;49.254;6.702;2022-12-18T10:34:09;30.27;;;17.93;;
9950;SDS011;24074;49.254;6.702;2022-12-18T10:36:36;36.53;;;21.60;;
9950;SDS011;24074;49.254;6.702;2022-12-18T10:39:18;36.27;;;21.00;;
9950;SDS011;24074;49.254;6.702;2022-12-18T10:41:47;32.67;;;19.27;;
9950;SDS011;24074;49.254;6.702;2022-12-18T10:44:17;35.83;;;20.47;;
9950;SDS011;24074;49.254;6.702;2022-12-18T10:46:49;37.90;;;22.13;;
9950;SDS011;24074;49.254;6.702;2022-12-18T10:49:19;34.30;;;22.33;;
9950;SDS011;24074;49.254;6.702;2022-12-18T10:52:14;37.93;;;22.17;;
9950;SDS011;24074;49.254;6.702;2022-12-18T10:54:45;30.53;;;18.80;;
9950;SDS011;24074;49.254;6.702;2022-12-18T10:59:55;33.17;;;18.77;;
9950;SDS011;24074;49.254;6.702;2022-12-18T11:04:52;35.53;;;21.33;;
9950;SDS011;24074;49.254;6.702;2022-12-18T11:07:17;38.60;;;22.70;;
9950;SDS011;24074;49.254;6.702;2022-12-18T11:09:43;40.07;;;22.87;;
9950;SDS011;24074;49.254;6.702;2022-12-18T11:12:23;33.47;;;18.37;;
9950;SDS011;24074;49.254;6.702;2022-12-18T11:14:53;35.87;;;19.07;;
9950;SDS011;24074;49.254;6.702;2022-12-18T11:17:41;37.90;;;21.70;;
9950;SDS011;24074;49.254;6.702;2022-12-18T11:20:19;38.23;;;23.00;;
9950;SDS011;24074;49.254;6.702;2022-12-18T11:23:00;37.23;;;21.70;;
9950;SDS011;24074;49.254;6.702;2022-12-18T11:25:29;38.40;;;22.90;;
9950;SDS011;24074;49.254;6.702;2022-12-18T11:28:00;40.27;;;23.83;;
9950;SDS011;24074;49.254;6.702;2022-12-18T11:30:34;37.40;;;22.17;;
9950;SDS011;24074;49.254;6.702;2022-12-18T11:35:58;32.10;;;16.70;;
9950;SDS011;24074;49.254;6.702;2022-12-18T11:38:38;38.90;;;23.53;;
9950;SDS011;24074;49.254;6.702;2022-12-18T11:41:23;37.90;;;22.83;;
9950;SDS011;24074;49.254;6.702;2022-12-18T11:44:15;36.43;;;23.17;;
9950;SDS011;24074;49.254;6.702;2022-12-18T11:47:01;40.50;;;24.30;;
9950;SDS011;24074;49.254;6.702;2022-12-18T11:49:33;42.87;;;24.47;;
9950;SDS011;24074;49.254;6.702;2022-12-18T11:54:37;37.17;;;20.80;;
9950;SDS011;24074;49.254;6.702;2022-12-18T12:00:01;36.80;;;22.93;;
9950;SDS011;24074;49.254;6.702;2022-12-18T12:02:42;39.23;;;22.20;;
9950;SDS011;24074;49.254;6.702;2022-12-18T12:05:40;38.80;;;22.53;;
9950;SDS011;24074;49.254;6.702;2022-12-18T12:11:00;39.63;;;21.10;;
9950;SDS011;24074;49.254;6.702;2022-12-18T12:16:35;36.93;;;19.93;;
9950;SDS011;24074;49.254;6.702;2022-12-18T12:19:23;40.73;;;22.87;;
9950;SDS011;24074;49.254;6.702;2022-12-18T12:22:18;38.47;;;22.33;;
9950;SDS011;24074;49.254;6.702;2022-12-18T12:33:44;26.70;;;13.63;;
9950;SDS011;24074;49.254;6.702;2022-12-18T12:36:36;26.63;;;14.27;;
9950;SDS011;24074;49.254;6.702;2022-12-18T12:39:06;29.23;;;16.90;;
9950;SDS011;24074;49.254;6.702;2022-12-18T12:41:37;26.47;;;16.13;;
9950;SDS011;24074;49.254;6.702;2022-12-18T12:44:25;31.57;;;18.90;;
9950;SDS011;24074;49.254;6.702;2022-12-18T12:47:00;36.37;;;20.50;;
9950;SDS011;24074;49.254;6.702;2022-12-18T12:49:37;34.37;;;19.83;;
9950;SDS011;24074;49.254;6.702;2022-12-18T12:52:10;32.60;;;20.17;;
9950;SDS011;24074;49.254;6.702;2022-12-18T12:54:54;32.37;;;18.20;;
9950;SDS011;24074;49.254;6.702;2022-12-18T13:00:13;34.83;;;19.03;;
9950;SDS011;24074;49.254;6.702;2022-12-18T13:02:58;31.77;;;18.97;;
9950;SDS011;24074;49.254;6.702;2022-12-18T13:06:00;34.00;;;19.87;;
9950;SDS011;24074;49.254;6.702;2022-12-18T13:08:50;35.60;;;20.73;;
9950;SDS011;24074;49.254;6.702;2022-12-18T13:14:32;35.60;;;20.93;;
9950;SDS011;24074;49.254;6.702;2022-12-18T13:19:50;33.27;;;18.33;;
9950;SDS011;24074;49.254;6.702;2022-12-18T13:33:30;36.13;;;21.03;;
9950;SDS011;24074;49.254;6.702;2022-12-18T13:43:54;35.43;;;20.40;;
9950;SDS011;24074;49.254;6.702;2022-12-18T13:46:24;32.57;;;19.37;;
9950;SDS011;24074;49.254;6.702;2022-12-18T13:48:57;36.13;;;21.73;;
9950;SDS011;24074;49.254;6.702;2022-12-18T13:51:27;27.50;;;13.07;;
9950;SDS011;24074;49.254;6.702;2022-12-18T13:54:40;31.20;;;19.57;;
9950;SDS011;24074;49.254;6.702;2022-12-18T13:56:59;36.10;;;21.00;;
9950;SDS011;24074;49.254;6.702;2022-12-18T13:59:26;33.17;;;20.23;;
9950;SDS011;24074;49.254;6.702;2022-12-18T14:02:00;35.10;;;21.67;;
9950;SDS011;24074;49.254;6.702;2022-12-18T14:04:34;32.77;;;20.73;;
9950;SDS011;24074;49.254;6.702;2022-12-18T14:09:31;33.30;;;19.90;;
9950;SDS011;24074;49.254;6.702;2022-12-18T14:12:01;32.47;;;20.27;;
9950;SDS011;24074;49.254;6.702;2022-12-18T14:14:46;34.83;;;20.87;;
9950;SDS011;24074;49.254;6.702;2022-12-18T14:17:14;38.17;;;21.17;;
9950;SDS011;24074;49.254;6.702;2022-12-18T14:19:42;35.67;;;19.40;;
9950;SDS011;24074;49.254;6.702;2022-12-18T14:22:16;32.70;;;20.87;;
9950;SDS011;24074;49.254;6.702;2022-12-18T14:24:44;36.73;;;21.40;;
9950;SDS011;24074;49.254;6.702;2022-12-18T14:27:21;34.33;;;18.57;;
9950;SDS011;24074;49.254;6.702;2022-12-18T14:29:50;34.77;;;21.40;;
9950;SDS011;24074;49.254;6.702;2022-12-18T14:32:20;37.00;;;22.77;;
9950;SDS011;24074;49.254;6.702;2022-12-18T14:34:49;35.30;;;20.90;;
9950;SDS011;24074;49.254;6.702;2022-12-18T14:37:25;33.27;;;21.20;;
9950;SDS011;24074;49.254;6.702;2022-12-18T14:40:01;35.70;;;21.70;;
9950;SDS011;24074;49.254;6.702;2022-12-18T14:42:28;35.60;;;22.03;;
9950;SDS011;24074;49.254;6.702;2022-12-18T14:47:57;35.47;;;21.17;;
9950;SDS011;24074;49.254;6.702;2022-12-18T14:50:23;36.23;;;22.37;;
9950;SDS011;24074;49.254;6.702;2022-12-18T14:52:50;37.63;;;20.73;;
9950;SDS011;24074;49.254;6.702;2022-12-18T14:55:19;38.17;;;22.60;;
9950;SDS011;24074;49.254;6.702;2022-12-18T14:57:46;36.30;;;22.37;;
9950;SDS011;24074;49.254;6.702;2022-12-18T15:00:20;38.00;;;21.80;;
9950;SDS011;24074;49.254;6.702;2022-12-18T15:02:48;33.17;;;19.80;;
9950;SDS011;24074;49.254;6.702;2022-12-18T15:05:18;35.07;;;21.03;;
9950;SDS011;24074;49.254;6.702;2022-12-18T15:07:53;35.73;;;20.17;;
9950;SDS011;24074;49.254;6.702;2022-12-18T15:17:58;34.20;;;20.63;;
9950;SDS011;24074;49.254;6.702;2022-12-18T15:20:32;34.57;;;20.93;;
9950;SDS011;24074;49.254;6.702;2022-12-18T15:23:21;34.73;;;21.93;;
9950;SDS011;24074;49.254;6.702;2022-12-18T15:25:49;34.57;;;21.67;;
9950;SDS011;24074;49.254;6.702;2022-12-18T15:28:23;35.97;;;22.17;;
9950;SDS011;24074;49.254;6.702;2022-12-18T15:31:01;37.73;;;23.27;;
9950;SDS011;24074;49.254;6.702;2022-12-18T15:33:32;35.33;;;22.03;;
9950;SDS011;24074;49.254;6.702;2022-12-18T15:36:01;34.47;;;21.63;;
9950;SDS011;24074;49.254;6.702;2022-12-18T15:38:29;39.97;;;22.00;;
9950;SDS011;24074;49.254;6.702;2022-12-18T15:40:54;35.53;;;22.27;;
9950;SDS011;24074;49.254;6.702;2022-12-18T15:43:21;35.10;;;21.43;;
9950;SDS011;24074;49.254;6.702;2022-12-18T15:46:02;34.47;;;20.80;;
9950;SDS011;24074;49.254;6.702;2022-12-18T15:48:40;35.47;;;21.63;;
9950;SDS011;24074;49.254;6.702;2022-12-18T15:51:15;35.97;;;21.63;;
9950;SDS011;24074;49.254;6.702;2022-12-18T15:53:46;35.90;;;21.87;;
9950;SDS011;24074;49.254;6.702;2022-12-18T15:56:14;34.03;;;20.60;;
9950;SDS011;24074;49.254;6.702;2022-12-18T15:58:59;37.13;;;22.10;;
9950;SDS011;24074;49.254;6.702;2022-12-18T16:01:26;38.33;;;21.77;;
9950;SDS011;24074;49.254;6.702;2022-12-18T16:03:53;36.07;;;21.83;;
9950;SDS011;24074;49.254;6.702;2022-12-18T16:06:19;38.90;;;22.63;;
9950;SDS011;24074;49.254;6.702;2022-12-18T16:08:45;37.80;;;22.17;;
9950;SDS011;24074;49.254;6.702;2022-12-18T16:11:16;37.47;;;22.67;;
9950;SDS011;24074;49.254;6.702;2022-12-18T16:14:03;37.90;;;22.70;;
9950;SDS011;24074;49.254;6.702;2022-12-18T16:16:31;39.17;;;24.00;;
9950;SDS011;24074;49.254;6.702;2022-12-18T16:18:56;39.43;;;23.67;;
9950;SDS011;24074;49.254;6.702;2022-12-18T16:21:22;37.53;;;22.17;;
9950;SDS011;24074;49.254;6.702;2022-12-18T16:23:48;36.10;;;21.53;;
9950;SDS011;24074;49.254;6.702;2022-12-18T16:26:13;32.43;;;20.73;;
9950;SDS011;24074;49.254;6.702;2022-12-18T16:28:39;35.37;;;21.63;;
9950;SDS011;24074;49.254;6.702;2022-12-18T16:31:04;37.23;;;21.13;;
9950;SDS011;24074;49.254;6.702;2022-12-18T16:33:30;33.87;;;20.97;;
9950;SDS011;24074;49.254;6.702;2022-12-18T16:35:56;34.37;;;21.13;;
9950;SDS011;24074;49.254;6.702;2022-12-18T16:38:21;34.37;;;20.17;;